Pueblo, CO

10:42 AM MST on December 07, 2016 (GMT -0700)
Belmont - Boomer Weather | | Change Station

Elev 4869 ft 38.30 °N, 104.58 °W | Updated 2 seconds ago

Overcast
Overcast
22.9 °F
Feels Like 15 °F
N
6.0
Wind Variable Wind from NNE
Gusts 8.0 mph

Today
High -- | Low -- °F
--% Chance of Precip.
Yesterday
High -- | Low -- °F
Precip. -- in
Pressure 30.31 in
Visibility 10.0 miles
Clouds Few 2300 ft
Overcast 3100 ft
Windchill 15 °F
Dew Point 11 °F
Humidity 59%
Rainfall in
Snow Depth Not available.
7:02 AM 4:37 PM
First Quarter, 54% visible
METAR KPUB 071653Z 09004KT 10SM FEW023 OVC031 M06/M12 A3016 RMK AO2 SLP264 T10561117
Pressure 30.31 in
Visibility 10.0 miles
Clouds Few 2300 ft
Overcast 3100 ft
Windchill 15 °F
Dew Point 11 °F
Humidity 59%
Rainfall in
Snow Depth Not available.
7:02 AM 4:37 PM
First Quarter, 54% visible
METAR KPUB 071653Z 09004KT 10SM FEW023 OVC031 M06/M12 A3016 RMK AO2 SLP264 T10561117

10-Day Weather Forecast

Almanac

Astronomy

Dec. 07, 2016 Rise Set
Actual Time
Civil Twilight
Nautical Twilight
Astronomical Twilight
Moon
Length of Visible Light
Length of Day
Tomorrow will be .
, % of the Moon is Illuminated

Today's Extremes

State Highs State Lows

Community

WunderPhotos

Upload Photos

1,956,156 photos uploaded!

WunderBlog® & News

Nearby

Air Quality

  Air Quality AQ Index Pollutant
Not available.

Snow Depth

Station Depth Elevation

Earthquake Activity

City Distance Mag. Time & Date
Minimum magnitude displayed is 2.5.

Coastal Water Temperatures

Place Temperature

Stations

Nearby Weather Stations

Station Location Temp. Windchill Dew Point Humidity Wind Precip. Elev Updated Type
                   

Watches & Warnings

There are currently no watches in effect.